Time;durP1;ratioP1;P1;durP2;ratioP2;P2;SDS_P1;SDS_P2;PMS_P1;PMS_P2;Temp;Humidity;BMP_temperature;BMP_pressure;BME280_temperature;BME280_humidity;BME280_pressure;Samples;Min_cycle;Max_cycle;Signal;HPM_P1;HPM_P2
2022/12/22 03:28:10;;;;;;;36.55;22.22;;;;;;;1.23;74.26;99162.11;1799976;79;21017;-39
2022/12/22 03:30:37;;;;;;;34.92;22.60;;;;;;;1.28;74.11;99159.33;1799798;79;21515;-39
2022/12/22 03:33:04;;;;;;;38.92;23.62;;;;;;;1.35;73.96;99163.47;1800149;78;21093;-40
2022/12/22 03:35:31;;;;;;;38.42;24.82;;;;;;;1.35;73.98;99158.91;1799927;79;21521;-39
2022/12/22 03:38:02;;;;;;;39.78;24.67;;;;;;;1.36;73.97;99165.02;1799755;79;21460;-39
2022/12/22 03:40:26;;;;;;;36.00;22.67;;;;;;;1.33;73.99;99164.30;1799638;79;21072;-39
2022/12/22 03:48:23;;;;;;;38.78;24.02;;;;;;;1.34;74.11;99152.53;1799944;79;21496;-39
2022/12/22 03:50:50;;;;;;;41.83;23.60;;;;;;;1.31;74.25;99150.70;1800068;78;20950;-40
2022/12/22 03:53:17;;;;;;;39.40;24.07;;;;;;;1.30;74.31;99146.47;1799660;79;20934;-40
2022/12/22 03:55:43;;;;;;;36.75;22.75;;;;;;;1.33;74.15;99150.41;1800048;79;21065;-39
2022/12/22 03:58:11;;;;;;;37.90;23.35;;;;;;;1.38;74.07;99148.16;1799673;79;23179;-39
2022/12/22 04:00:39;;;;;;;37.23;23.57;;;;;;;1.39;74.16;99149.74;1799790;79;20950;-39
2022/12/22 04:03:06;;;;;;;41.88;24.43;;;;;;;1.36;74.23;99151.12;1799698;79;20982;-39
2022/12/22 04:05:34;;;;;;;37.70;23.70;;;;;;;1.33;74.28;99150.41;1799950;79;20914;-39
2022/12/22 04:08:01;;;;;;;39.10;23.52;;;;;;;1.30;74.44;99148.35;1799878;79;21069;-40
2022/12/22 04:13:12;;;;;;;42.88;23.73;;;;;;;1.41;74.30;99144.87;1799817;79;21590;-39
2022/12/22 04:15:39;;;;;;;43.00;25.02;;;;;;;1.40;74.37;99145.44;1799778;79;21000;-39
2022/12/22 04:18:05;;;;;;;40.12;22.80;;;;;;;1.39;74.35;99147.07;1799718;78;20990;-39
2022/12/22 04:20:32;;;;;;;41.48;24.27;;;;;;;1.36;74.42;99144.98;1799813;78;21084;-40
2022/12/22 04:22:59;;;;;;;38.88;23.12;;;;;;;1.31;74.56;99141.89;1799684;79;23154;-39
2022/12/22 04:25:26;;;;;;;39.45;24.23;;;;;;;1.33;74.55;99134.92;1799967;79;20874;-39
2022/12/22 04:27:52;;;;;;;39.63;24.55;;;;;;;1.31;74.56;99123.99;1799984;78;21406;-39
2022/12/22 04:30:19;;;;;;;43.87;24.63;;;;;;;1.27;74.64;99116.89;1794495;79;20957;-39
2022/12/22 04:32:48;;;;;;;38.42;23.75;;;;;;;1.26;74.70;99125.99;1800143;79;20990;-40
2022/12/22 04:35:14;;;;;;;39.10;23.20;;;;;;;1.25;74.70;99123.89;1799896;78;21295;-39
2022/12/22 04:37:41;;;;;;;40.28;24.35;;;;;;;1.29;74.57;99120.86;1799768;78;20922;-39
2022/12/22 04:40:09;;;;;;;37.33;23.18;;;;;;;1.30;74.53;99117.09;1799786;78;20992;-39
2022/12/22 04:42:36;;;;;;;41.83;24.00;;;;;;;1.28;74.57;99115.81;1800282;79;21527;-39
2022/12/22 04:45:05;;;;;;;36.60;23.25;;;;;;;1.23;74.69;99111.38;1799988;78;20997;-39
2022/12/22 04:47:32;;;;;;;38.80;23.07;;;;;;;1.20;74.87;99110.66;1800327;79;21047;-40
2022/12/22 04:49:58;;;;;;;38.40;24.30;;;;;;;1.25;74.74;99123.89;1799759;79;21027;-40
2022/12/22 04:52:25;;;;;;;39.70;23.92;;;;;;;1.27;74.75;99125.70;1799874;79;21475;-39
2022/12/22 04:54:52;;;;;;;39.15;23.65;;;;;;;1.27;74.76;99123.57;1795224;78;21029;-39
2022/12/22 04:57:20;;;;;;;36.05;22.32;;;;;;;1.27;74.83;99131.04;1791583;79;21554;-39
2022/12/22 04:59:46;;;;;;;36.58;22.98;;;;;;;1.26;74.91;99141.47;1791502;80;21145;-39
2022/12/22 05:02:13;;;;;;;39.67;23.20;;;;;;;1.31;74.82;99145.36;1791878;79;21001;-39
2022/12/22 05:04:40;;;;;;;40.52;24.55;;;;;;;1.36;74.78;99151.66;1791749;79;21523;-40
2022/12/22 05:07:06;;;;;;;39.95;23.73;;;;;;;1.34;74.72;99141.31;1791836;79;21483;-39
2022/12/22 05:09:35;;;;;;;38.55;24.82;;;;;;;1.33;74.64;99137.05;1791695;79;20886;-39
2022/12/22 05:12:53;;;;;;;38.98;23.60;;;;;;;1.35;74.55;99140.22;1791747;79;21161;-40
2022/12/22 05:14:30;;;;;;;40.33;24.43;;;;;;;1.43;74.36;99136.81;1788151;80;20911;-39
2022/12/22 05:16:56;;;;;;;44.25;24.52;;;;;;;1.48;74.18;99127.88;1791581;80;20945;-39
2022/12/22 05:19:23;;;;;;;44.73;26.37;;;;;;;1.50;74.00;99127.04;1791408;80;21618;-39
2022/12/22 05:21:49;;;;;;;38.42;24.02;;;;;;;1.50;73.89;99132.39;1791407;80;21488;-39
2022/12/22 05:24:16;;;;;;;38.92;24.00;;;;;;;1.51;73.76;99127.26;1791416;79;21233;-39
2022/12/22 05:26:43;;;;;;;37.45;23.07;;;;;;;1.49;73.69;99134.81;1791469;80;21018;-39
2022/12/22 05:29:09;;;;;;;42.35;24.12;;;;;;;1.48;73.77;99131.89;1791494;80;21084;-39
2022/12/22 05:31:36;;;;;;;42.05;25.90;;;;;;;1.47;73.78;99128.97;1791509;80;21037;-39
2022/12/22 05:34:04;;;;;;;38.90;24.40;;;;;;;1.49;73.72;99125.45;1791549;79;20979;-39
2022/12/22 05:36:32;;;;;;;38.40;24.52;;;;;;;1.50;73.70;99133.72;1791590;79;21249;-39
2022/12/22 05:38:58;;;;;;;38.85;24.72;;;;;;;1.47;73.73;99136.98;1791478;80;21500;-39
2022/12/22 05:41:25;;;;;;;37.53;23.52;;;;;;;1.42;73.72;99134.44;1791652;79;21014;-40
2022/12/22 05:43:51;;;;;;;42.95;25.92;;;;;;;1.39;73.71;99135.05;1791807;79;21455;-39
2022/12/22 05:46:19;;;;;;;63.63;39.23;;;;;;;1.41;73.61;99135.52;1791658;80;21072;-39
2022/12/22 05:48:45;;;;;;;39.88;26.93;;;;;;;1.42;73.62;99135.77;1791556;80;21118;-39
2022/12/22 05:51:12;;;;;;;43.45;27.90;;;;;;;1.42;73.61;99145.91;1791496;79;20974;-39
2022/12/22 05:53:39;;;;;;;40.03;26.02;;;;;;;1.41;73.59;99152.88;1791564;79;21037;-39
2022/12/22 05:56:07;;;;;;;44.40;30.72;;;;;;;1.41;73.61;99160.34;1799375;79;20977;-39
2022/12/22 05:58:36;;;;;;;43.95;26.50;;;;;;;1.44;73.58;99162.98;1800048;79;21033;-39
2022/12/22 06:01:04;;;;;;;47.90;28.40;;;;;;;1.43;73.57;99165.40;1800090;79;21190;-40
2022/12/22 06:03:30;;;;;;;45.67;27.48;;;;;;;1.40;73.60;99179.38;1800110;79;21009;-40
2022/12/22 06:05:57;;;;;;;46.55;29.32;;;;;;;1.42;73.56;99177.96;1799941;79;20961;-39
2022/12/22 06:08:24;;;;;;;44.00;27.98;;;;;;;1.45;73.65;99183.27;1799918;79;21102;-39
2022/12/22 06:10:53;;;;;;;46.08;27.30;;;;;;;1.45;73.67;99179.25;1799955;79;21025;-39
2022/12/22 06:13:19;;;;;;;45.40;26.37;;;;;;;1.47;73.64;99187.73;1800169;79;21312;-39
2022/12/22 06:15:48;;;;;;;41.50;26.50;;;;;;;1.47;73.52;99183.73;1798479;79;21501;-39
2022/12/22 06:18:14;;;;;;;42.80;24.50;;;;;;;1.50;73.50;99189.82;1778579;79;21042;-40
2022/12/22 06:20:41;;;;;;;42.65;25.65;;;;;;;1.53;73.39;99186.53;1778498;80;21007;-40
2022/12/22 06:23:08;;;;;;;41.48;25.10;;;;;;;1.51;73.39;99186.03;1778461;80;20989;-39
2022/12/22 06:25:34;;;;;;;40.90;26.02;;;;;;;1.50;73.39;99185.81;1778688;80;21124;-39
2022/12/22 06:28:01;;;;;;;41.25;25.30;;;;;;;1.48;73.32;99181.30;1778453;80;21019;-39
2022/12/22 06:30:29;;;;;;;48.83;29.45;;;;;;;1.48;73.30;99178.09;1778540;80;21028;-39
2022/12/22 06:32:56;;;;;;;41.13;25.40;;;;;;;1.46;73.41;99177.59;1778299;80;21539;-39
2022/12/22 06:35:22;;;;;;;42.70;24.07;;;;;;;1.47;73.42;99178.39;1778301;80;21047;-39
2022/12/22 06:37:49;;;;;;;40.83;23.83;;;;;;;1.53;73.23;99187.86;1778411;80;21125;-39
2022/12/22 06:40:16;;;;;;;43.87;26.65;;;;;;;1.56;73.11;99181.91;1778329;80;20989;-39
2022/12/22 06:45:27;;;;;;;43.38;27.50;;;;;;;1.58;73.14;99176.52;1778415;80;21482;-39
2022/12/22 06:47:54;;;;;;;38.08;24.50;;;;;;;1.59;72.98;99174.09;1778207;80;20965;-39
2022/12/22 06:50:21;;;;;;;41.88;26.50;;;;;;;1.63;72.88;99180.94;1778275;80;21130;-39
2022/12/22 06:52:47;;;;;;;41.88;25.82;;;;;;;1.66;72.85;99185.67;1778401;79;20889;-39
2022/12/22 06:55:14;;;;;;;44.35;27.60;;;;;;;1.64;72.86;99187.88;1787063;79;20979;-40
2022/12/22 06:57:41;;;;;;;63.65;40.30;;;;;;;1.61;72.82;99185.79;1797868;79;21075;-39
2022/12/22 07:00:10;;;;;;;44.38;27.27;;;;;;;1.59;72.84;99189.33;1797851;79;21485;-39
2022/12/22 07:02:36;;;;;;;45.73;29.90;;;;;;;1.63;72.93;99190.30;1769391;79;21241;-39
2022/12/22 07:05:05;;;;;;;47.30;30.25;;;;;;;1.71;72.66;99187.67;1797778;79;21039;-40
2022/12/22 07:07:31;;;;;;;38.40;24.98;;;;;;;1.72;72.54;99193.81;1797775;79;21019;-40
2022/12/22 07:09:58;;;;;;;39.88;25.60;;;;;;;1.71;72.57;99198.91;1797941;79;21055;-39
2022/12/22 07:12:24;;;;;;;42.03;25.12;;;;;;;1.67;72.51;99192.59;1797969;79;21038;-40
2022/12/22 07:14:51;;;;;;;43.65;28.75;;;;;;;1.65;72.60;99189.42;1797961;79;21321;-39
2022/12/22 07:17:18;;;;;;;36.03;23.95;;;;;;;1.69;72.59;99201.11;1797970;79;21489;-39
2022/12/22 07:19:44;;;;;;;38.08;25.35;;;;;;;1.76;72.34;99209.47;1798084;79;21075;-39
2022/12/22 07:22:12;;;;;;;38.75;24.10;;;;;;;1.76;72.31;99202.79;1797909;79;20963;-39
2022/12/22 07:24:39;;;;;;;47.75;30.40;;;;;;;1.76;72.14;99189.42;1785822;79;21022;-40
2022/12/22 07:27:06;;;;;;;41.83;25.80;;;;;;;1.73;72.19;99200.73;1797887;79;21212;-39
2022/12/22 07:29:35;;;;;;;60.50;41.30;;;;;;;1.72;72.21;99207.17;1797876;79;21544;-39
2022/12/22 07:32:02;;;;;;;51.18;30.95;;;;;;;1.75;72.18;99212.69;1797870;79;20920;-40
2022/12/22 07:34:29;;;;;;;37.80;24.18;;;;;;;1.74;72.29;99220.45;1797946;79;20923;-40
2022/12/22 07:36:55;;;;;;;39.98;23.85;;;;;;;1.75;72.36;99222.04;1797962;79;21514;-39
2022/12/22 07:39:22;;;;;;;41.05;24.65;;;;;;;1.83;72.30;99207.17;1797920;79;21232;-39
2022/12/22 07:44:35;;;;;;;38.80;25.70;;;;;;;1.93;72.06;99207.47;1792468;80;21551;-40
2022/12/22 07:47:01;;;;;;;44.53;26.85;;;;;;;1.97;71.91;99216.45;1792037;80;21059;-40
2022/12/22 07:52:13;;;;;;;43.00;24.92;;;;;;;2.02;71.72;99221.13;1792225;80;21123;-40
2022/12/22 07:54:40;;;;;;;39.75;25.55;;;;;;;2.04;71.46;99218.13;1792171;80;21026;-39
2022/12/22 07:57:07;;;;;;;38.70;25.95;;;;;;;2.05;71.37;99219.16;1792120;80;20978;-39
2022/12/22 07:59:34;;;;;;;38.38;25.30;;;;;;;2.14;71.19;99219.20;1792432;80;21482;-39
2022/12/22 08:02:00;;;;;;;42.85;27.50;;;;;;;2.24;70.93;99221.61;1792391;80;21051;-39
2022/12/22 08:04:27;;;;;;;39.78;26.00;;;;;;;2.26;70.81;99215.97;1792382;80;21216;-39
2022/12/22 08:06:54;;;;;;;40.45;27.65;;;;;;;2.26;70.54;99210.07;1792390;80;21497;-40
2022/12/22 08:09:21;;;;;;;40.67;25.60;;;;;;;2.27;70.51;99212.20;1792636;80;20893;-39
2022/12/22 08:11:49;;;;;;;70.90;38.63;;;;;;;2.28;70.27;99213.75;1792325;80;21323;-40
2022/12/22 08:14:15;;;;;;;40.05;24.70;;;;;;;2.29;70.06;99224.16;1792349;80;21462;-39
2022/12/22 08:16:42;;;;;;;44.40;27.62;;;;;;;2.37;69.78;99231.42;1792448;80;23133;-40
2022/12/22 08:19:10;;;;;;;43.45;24.85;;;;;;;2.43;69.76;99218.70;1792449;80;20963;-40
2022/12/22 08:21:37;;;;;;;38.95;24.72;;;;;;;2.49;69.58;99212.91;1792464;80;20972;-40
2022/12/22 08:24:05;;;;;;;37.58;24.30;;;;;;;2.53;69.36;99207.18;1792430;80;21023;-39
2022/12/22 08:26:36;;;;;;;37.28;24.57;;;;;;;2.56;69.18;99205.78;1792423;80;21035;-40
2022/12/22 08:29:15;;;;;;;41.30;26.05;;;;;;;2.57;68.83;99201.98;1792665;80;21911;-40
2022/12/22 08:31:42;;;;;;;46.95;25.43;;;;;;;2.59;68.72;99194.45;1791428;80;20943;-39
2022/12/22 08:34:11;;;;;;;36.63;24.75;;;;;;;2.58;68.62;99195.00;1792244;80;20956;-40
2022/12/22 08:36:41;;;;;;;41.63;26.20;;;;;;;2.54;68.67;99191.91;1765870;80;21047;-40
2022/12/22 08:39:07;;;;;;;38.80;25.30;;;;;;;2.53;68.79;99188.45;1792532;80;21703;-39
2022/12/22 08:41:49;;;;;;;35.28;23.22;;;;;;;2.52;69.05;99190.09;1792329;80;21219;-39
2022/12/22 08:44:24;;;;;;;42.60;24.00;;;;;;;2.56;69.02;99185.72;1791999;80;22092;-40
2022/12/22 08:46:51;;;;;;;41.05;26.02;;;;;;;2.64;68.81;99183.60;1792667;80;21003;-39
2022/12/22 08:49:18;;;;;;;39.83;24.47;;;;;;;2.67;68.74;99184.31;1792224;80;20909;-40
2022/12/22 08:51:45;;;;;;;38.88;25.27;;;;;;;2.72;68.54;99177.47;1792334;80;21039;-40
2022/12/22 08:54:11;;;;;;;41.10;26.05;;;;;;;2.73;68.49;99191.10;1792293;80;21121;-40
2022/12/22 08:56:38;;;;;;;39.30;26.27;;;;;;;2.73;68.62;99191.10;1781502;80;21545;-40
2022/12/22 08:59:06;;;;;;;38.92;25.20;;;;;;;2.73;68.58;99192.44;1777879;80;20984;-39
2022/12/22 09:01:35;;;;;;;44.67;26.82;;;;;;;2.70;68.55;99184.25;1777907;80;21567;-40
2022/12/22 09:04:03;;;;;;;39.05;25.92;;;;;;;2.68;68.70;99169.83;1778102;80;21699;-40
2022/12/22 09:06:30;;;;;;;38.23;24.85;;;;;;;2.70;68.76;99169.53;1777963;80;21221;-40
2022/12/22 09:09:00;;;;;;;47.98;30.88;;;;;;;2.76;68.71;99163.70;1777896;80;20933;-39
2022/12/22 09:11:28;;;;;;;38.45;26.75;;;;;;;2.84;68.60;99160.27;1778015;80;20976;-40
2022/12/22 09:13:57;;;;;;;52.20;35.13;;;;;;;2.87;68.61;99158.84;1777807;80;21035;-40
2022/12/22 09:16:25;;;;;;;48.53;31.83;;;;;;;2.91;68.49;99164.59;1778129;80;20941;-40
2022/12/22 09:18:52;;;;;;;44.67;29.27;;;;;;;2.95;68.47;99161.52;1777945;80;21193;-40
2022/12/22 09:21:19;;;;;;;55.15;34.20;;;;;;;2.98;68.45;99163.59;1777819;80;21015;-40
2022/12/22 09:23:45;;;;;;;44.10;25.65;;;;;;;3.03;68.33;99175.48;1777908;80;21004;-40
2022/12/22 09:26:15;;;;;;;48.13;34.23;;;;;;;3.10;68.23;99175.58;1778023;80;20997;-40
2022/12/22 09:28:41;;;;;;;99.17;74.40;;;;;;;3.18;68.04;99186.84;1778666;80;21525;-39
2022/12/22 09:31:10;;;;;;;110.75;71.55;;;;;;;3.28;67.88;99177.16;1777959;80;21205;-40
2022/12/22 09:33:36;;;;;;;62.83;45.85;;;;;;;3.31;67.88;99179.19;1772375;80;21055;-40
2022/12/22 09:36:09;;;;;;;49.77;34.98;;;;;;;3.34;67.74;99178.58;1778049;80;20991;-40
2022/12/22 09:38:38;;;;;;;48.33;34.23;;;;;;;3.34;67.71;99177.23;1777750;80;20911;-39
2022/12/22 09:41:34;;;;;;;35.70;24.98;;;;;;;3.33;67.69;99187.16;1778022;80;21087;-40
2022/12/22 09:44:23;;;;;;;38.88;25.88;;;;;;;3.33;67.71;99187.72;1778055;80;21308;-39
2022/12/22 09:46:52;;;;;;;39.65;25.35;;;;;;;3.28;67.70;99185.98;1778255;80;21007;-39
2022/12/22 09:49:19;;;;;;;46.10;27.98;;;;;;;3.27;67.92;99187.63;1778144;80;20968;-39
2022/12/22 09:51:57;;;;;;;51.92;38.73;;;;;;;3.32;67.99;99190.15;1778102;80;21088;-40
2022/12/22 09:54:24;;;;;;;39.83;26.85;;;;;;;3.37;67.96;99190.78;1776892;80;21028;-39
2022/12/22 09:56:51;;;;;;;52.50;33.95;;;;;;;3.37;68.10;99192.67;1777764;80;23106;-40
2022/12/22 09:59:19;;;;;;;40.25;26.57;;;;;;;3.36;68.12;99190.55;1777725;80;20976;-39
2022/12/22 10:02:20;;;;;;;35.63;23.65;;;;;;;3.38;68.08;99186.22;1777864;80;20939;-40
2022/12/22 10:05:27;;;;;;;40.63;26.05;;;;;;;3.37;67.83;99184.64;1777027;80;21597;-40
2022/12/22 10:07:51;;;;;;;41.23;25.88;;;;;;;3.29;67.98;99186.77;1777745;80;21028;-39
2022/12/22 10:10:28;;;;;;;39.60;25.12;;;;;;;3.23;68.08;99178.10;1777840;80;21707;-40
2022/12/22 21:21:52;;;;;;;75.25;49.18;;;;;;;3.03;79.27;99012.68;1819569;78;22679;-38
2022/12/22 21:24:19;;;;;;;72.35;44.30;;;;;;;3.19;78.14;99010.30;1775161;80;20997;-38
2022/12/22 21:26:51;;;;;;;71.80;44.30;;;;;;;3.17;77.41;99010.61;1751233;81;21150;-38
2022/12/22 21:29:22;;;;;;;73.55;44.05;;;;;;;3.13;76.81;99006.20;1764572;81;20909;-38
2022/12/22 21:31:49;;;;;;;76.80;45.40;;;;;;;3.10;76.41;99001.50;1763715;81;20972;-38
2022/12/22 21:34:16;;;;;;;71.00;41.68;;;;;;;3.04;76.03;98998.98;1755506;81;21003;-38
2022/12/22 21:36:44;;;;;;;70.05;41.98;;;;;;;3.06;75.73;99006.12;1760002;81;20964;-38
2022/12/22 21:39:25;;;;;;;70.92;43.83;;;;;;;3.10;75.13;99002.84;1758233;81;21106;-38
2022/12/22 21:42:03;;;;;;;73.62;43.13;;;;;;;3.12;74.73;98995.25;1751783;81;21028;-38
2022/12/22 21:44:33;;;;;;;78.52;45.83;;;;;;;3.05;74.52;99001.87;1759732;81;20929;-38
2022/12/22 21:47:00;;;;;;;75.83;44.50;;;;;;;2.98;74.69;98993.55;1751520;81;20908;-38
2022/12/22 21:49:29;;;;;;;72.85;44.85;;;;;;;2.95;74.77;98994.17;1755738;81;21036;-38
2022/12/22 21:51:56;;;;;;;72.78;43.33;;;;;;;2.92;74.74;98992.14;1767964;81;21288;-38
2022/12/22 21:54:24;;;;;;;73.85;43.58;;;;;;;2.93;74.82;98991.04;1764464;81;21083;-38
2022/12/22 21:56:52;;;;;;;72.65;42.48;;;;;;;2.99;74.58;98990.33;1759448;81;21031;-38
2022/12/22 21:59:18;;;;;;;71.25;43.45;;;;;;;3.01;74.45;98989.44;1759317;81;21011;-38
2022/12/22 22:01:45;;;;;;;69.25;43.50;;;;;;;2.98;74.35;98988.20;1763603;81;21393;-38
2022/12/22 22:04:12;;;;;;;75.30;46.00;;;;;;;2.97;74.31;98987.17;1755159;81;21332;-38
2022/12/22 22:06:39;;;;;;;76.17;45.45;;;;;;;2.93;74.16;98987.57;1763390;81;21015;-38
2022/12/22 22:09:06;;;;;;;74.53;43.48;;;;;;;2.90;74.18;98983.66;1755406;81;23353;-38
2022/12/22 22:12:31;;;;;;;72.87;43.50;;;;;;;2.93;74.15;98980.33;1754979;81;21036;-38
2022/12/22 22:14:01;;;;;;;75.25;43.73;;;;;;;3.00;74.02;98982.53;1755849;81;21016;-38
2022/12/22 22:16:29;;;;;;;69.80;42.08;;;;;;;3.08;73.64;98983.61;1754341;81;21160;-38
2022/12/22 22:18:55;;;;;;;74.30;45.05;;;;;;;3.08;73.77;98982.27;1759847;81;21534;-38
2022/12/22 22:21:22;;;;;;;69.67;43.38;;;;;;;3.12;73.62;98981.86;1763558;81;21103;-38
2022/12/22 22:23:48;;;;;;;69.32;42.65;;;;;;;3.12;73.46;98977.29;1763401;81;21147;-38
2022/12/22 22:26:15;;;;;;;74.22;43.60;;;;;;;3.11;73.32;98974.92;1759089;81;20947;-38
2022/12/22 22:28:42;;;;;;;72.75;40.83;;;;;;;3.10;73.13;98977.39;1755257;81;21478;-38
2022/12/22 22:31:09;;;;;;;70.08;41.80;;;;;;;3.12;73.02;98975.16;1759309;81;21086;-38
2022/12/22 22:33:36;;;;;;;66.80;40.60;;;;;;;3.19;72.80;98971.45;1762987;81;21020;-38
2022/12/22 22:36:06;;;;;;;68.22;42.13;;;;;;;3.21;72.71;98971.91;1760559;81;20992;-39
2022/12/22 22:38:33;;;;;;;;;;;;;;;3.22;72.57;98969.47;1764815;81;21008;-38
2022/12/22 22:41:00;;;;;;;70.47;40.85;;;;;;;3.20;72.34;98968.44;1754537;81;21130;-38
2022/12/22 22:43:26;;;;;;;75.60;43.38;;;;;;;3.08;72.53;98970.22;1762165;81;20932;-38
2022/12/22 22:45:53;;;;;;;72.75;43.20;;;;;;;3.09;72.55;98965.09;1760321;81;21487;-38
2022/12/22 22:48:22;;;;;;;73.35;41.35;;;;;;;3.08;72.45;98959.50;1754969;81;21064;-38
2022/12/22 22:50:49;;;;;;;66.82;39.18;;;;;;;3.11;72.27;98964.20;1754756;81;21015;-38
2022/12/22 22:53:16;;;;;;;68.87;41.33;;;;;;;3.13;72.07;98956.66;1758836;81;23145;-38
2022/12/22 22:55:43;;;;;;;67.08;41.33;;;;;;;3.15;71.89;98961.91;1755077;81;20980;-38
2022/12/22 22:58:10;;;;;;;71.05;43.02;;;;;;;3.11;72.05;98950.82;1758902;81;21522;-39
2022/12/22 23:00:37;;;;;;;67.50;41.75;;;;;;;3.06;71.99;98947.21;1758661;81;21581;-38
2022/12/22 23:03:04;;;;;;;70.90;42.38;;;;;;;3.04;72.02;98944.09;1759455;81;21021;-38
2022/12/22 23:05:31;;;;;;;75.72;43.05;;;;;;;3.01;72.13;98950.06;1762904;81;21278;-38
2022/12/22 23:07:58;;;;;;;74.12;42.43;;;;;;;2.96;72.15;98946.22;1759157;81;20964;-38
2022/12/22 23:10:24;;;;;;;67.37;40.12;;;;;;;2.92;72.19;98942.61;1759341;81;20948;-38
2022/12/22 23:12:52;;;;;;;69.42;42.05;;;;;;;2.97;72.29;98937.08;1759799;81;21533;-38
2022/12/22 23:15:18;;;;;;;67.58;41.53;;;;;;;3.04;72.19;98933.37;1755140;81;21035;-38
2022/12/22 23:17:45;;;;;;;68.42;40.73;;;;;;;3.06;72.19;98935.16;1763131;81;21200;-38
2022/12/22 23:20:12;;;;;;;70.32;42.27;;;;;;;3.06;71.94;98928.47;1763102;81;20937;-38
2022/12/22 23:22:38;;;;;;;67.72;41.40;;;;;;;3.04;71.90;98924.00;1751022;81;21003;-39
2022/12/22 23:25:07;;;;;;;70.65;41.53;;;;;;;3.04;71.89;98925.34;1764085;81;20905;-39
2022/12/22 23:27:34;;;;;;;73.92;43.15;;;;;;;3.03;71.81;98921.08;1759646;81;21001;-39
2022/12/22 23:30:00;;;;;;;73.30;41.60;;;;;;;3.01;71.79;98913.13;1759881;81;21527;-39
2022/12/22 23:32:27;;;;;;;65.05;40.33;;;;;;;3.03;71.74;98906.36;1763572;81;21009;-39
2022/12/22 23:34:54;;;;;;;69.82;41.55;;;;;;;3.10;71.70;98905.08;1760216;81;21004;-39
2022/12/22 23:37:22;;;;;;;70.37;42.58;;;;;;;3.15;71.55;98909.68;1754155;81;21001;-39
2022/12/22 23:39:48;;;;;;;68.00;41.10;;;;;;;3.15;71.39;98902.98;1759158;81;21525;-39
2022/12/22 23:42:15;;;;;;;65.70;40.98;;;;;;;3.12;71.34;98909.55;1760773;81;21838;-40
2022/12/22 23:44:42;;;;;;;67.65;41.23;;;;;;;3.09;71.39;98912.88;1761891;81;21022;-39
2022/12/22 23:47:09;;;;;;;67.95;41.40;;;;;;;3.06;71.50;98910.27;1761000;81;20937;-39
2022/12/22 23:49:36;;;;;;;67.78;42.05;;;;;;;3.06;71.56;98901.69;1755857;81;21562;-39
2022/12/22 23:52:03;;;;;;;66.67;40.30;;;;;;;3.05;71.57;98885.93;1756024;81;21592;-39
2022/12/22 23:54:30;;;;;;;64.95;41.33;;;;;;;3.06;71.36;98897.67;1754683;81;21195;-39
2022/12/22 23:56:57;;;;;;;61.80;38.92;;;;;;;3.09;71.22;98888.23;1758329;81;21016;-40
2022/12/22 23:59:23;;;;;;;65.32;39.48;;;;;;;3.13;71.09;98893.16;1755369;81;20981;-39
